LSZC Airport Information

Runway Information
Runway 07L Length 6561 ft width 130 ft
Elevation 1475 ft Threshold 200 ft Heading 62
Runway 25R Length 6561 ft Width 130 ft
Elevation 1435 ft Threshold 200 ft Heading 242
Runway 07R Length 4921 ft width 130 ft
Elevation 1475 ft Threshold 0 ft Heading 62
Runway 25L Length 4921 ft Width 130 ft
Elevation 1445 ft Threshold 0 ft Heading 242
Airport Frequencies
Type Air to Air Name INFO Frequency 134.125 MHZ
Type ARR ALPNAC Name Alpnach To Frequency 128.475 MHZ
Type ARR EMMEN Name Emmen Towe Frequency 120.425 MHZ
Type FIS Name Zurich Inf Frequency 124.7 MHZ
Type GCA Name ARR/DEP Frequency 140.65 MHZ
Type TWR Name TWR Frequency 119.625 MHZ
Airport Navaids
Airport Weather Information & NOTAM
ADDS - METARS form results

(0949 UTC 23 July 2018)
 
METAR text: LSZC 230920Z AUTO VRB02KT 9999 FEW050 22/15 Q1019
Conditions at: LSZC (BUOCHS , CH) observed 0920 UTC 23 July 2018
Temperature: 22.0°C (72°F)
Dewpoint: 15.0°C (59°F) [RH = 65%]
Pressure (altimeter): 30.09 inches Hg (1019.0 mb)
Winds: variable direction winds at 2 MPH (2 knots; 1.0 m/s)
Visibility: 6 or more miles (10+ km)
Ceiling: at least 12,000 feet AGL
Clouds: few clouds at 5000 feet AGL
Weather: no significant weather observed at this time

METAR text: LSZC 230850Z AUTO VRB01KT 9999 FEW100 20/14 Q1019
Conditions at: LSZC (BUOCHS , CH) observed 0850 UTC 23 July 2018
Temperature: 20.0°C (68°F)
Dewpoint: 14.0°C (57°F) [RH = 68%]
Pressure (altimeter): 30.09 inches Hg (1019.0 mb)
Winds: variable direction winds at 1 MPH (1 knots; 0.5 m/s)
Visibility: 6 or more miles (10+ km)
Ceiling: at least 12,000 feet AGL
Clouds: few clouds at 10000 feet AGL
Weather: no significant weather observed at this time